Pilot information for Taza Airport

[ general | frequencies | runways | weather | notam | navaids | links ]

Caution: This page displays community-maintained data: information may be missing, incorrect, or out of date. Please confirm with an official source before making travel plans.

General information for Taza Airport

Airport codes: GMFZ
Type: local airport(light traffic)
Scheduled airline service: no
Serves: Taza, Taza, Morocco
Latitude: 34.233299 | 34 13.997955 N | N34 13 59
Longitude: -3.950000 | 03 57.000003 W | W003 57 00
Field elevation: 1,890 ft/576 m MSL

Radio communication frequencies for Taza Airport

No communications frequencies known for Taza Airport.

Members can add and update frequencies.

Runways at Taza Airport

No runway information available for Taza Airport.

Members can add and update runway information.

Aviation weather for Taza Airport

Current conditions (METAR) for Taza Airport

Retrieved 2012/11/17 17:30:

GMFZ 171730Z 00000KT 8000 TS SCT020TCU BKN023CB 15/13 Q1009

Forecast (TAF) for Taza Airport

Closest forecast is Sa├»ss Airport, 54.3 nm (100.6 km) WSW. Retrieved 2014/10/30 18:18:

TAF TAF GMFF 301700Z 3018/3124 08006KT 9999 SCT033 SCT100

Notices to Airmen (NOTAM) for Taza Airport

Please confirm all NOTAMs at the original source! These are for information only, and may be wrong, out of date, or incomplete.

We have no current NOTAMs for Taza Airport. Please check with an official source to confirm.